Time;durP1;ratioP1;P1;durP2;ratioP2;P2;SDS_P1;SDS_P2;PMS_P1;PMS_P2;Temp;Humidity;BMP_temperature;BMP_pressure;BME280_temperature;BME280_humidity;BME280_pressure;Samples;Min_cycle;Max_cycle;Signal;HPM_P1;HPM_P2
2023/02/16 00:03:44;;;;;;;73.65;44.97;;;;;;;6.14;100.00;102327.63;10387291;28;20025;-67
2023/02/16 00:08:45;;;;;;;73.28;48.15;;;;;;;6.14;100.00;102318.72;10386732;28;20038;-67
2023/02/16 00:13:51;;;;;;;79.18;49.10;;;;;;;6.14;100.00;102324.94;10402138;28;20056;-67
2023/02/16 00:18:52;;;;;;;67.63;48.07;;;;;;;6.10;100.00;102312.75;10403382;28;20377;-67
2023/02/16 00:23:52;;;;;;;70.20;48.20;;;;;;;6.12;100.00;102313.44;10435438;28;20274;-67
2023/02/16 00:28:54;;;;;;;63.78;44.97;;;;;;;6.21;100.00;102304.59;10435170;28;20041;-67
2023/02/16 00:33:54;;;;;;;70.30;43.63;;;;;;;6.24;100.00;102303.47;10435353;28;20068;-67
2023/02/16 00:38:54;;;;;;;64.72;39.78;;;;;;;6.20;100.00;102296.66;10435704;28;20452;-67
2023/02/16 00:43:55;;;;;;;77.57;47.83;;;;;;;6.13;100.00;102300.88;10418638;28;20037;-67
2023/02/16 00:48:55;;;;;;;77.68;49.72;;;;;;;6.16;100.00;102300.59;10401383;28;20087;-67
2023/02/16 00:53:56;;;;;;;74.15;50.13;;;;;;;6.07;100.00;102310.34;10400947;28;20092;-67
2023/02/16 00:58:56;;;;;;;70.35;42.92;;;;;;;6.17;100.00;102295.09;10434054;28;20120;-67
2023/02/16 01:04:02;;;;;;;66.97;43.22;;;;;;;6.32;100.00;102298.28;10417150;28;20095;-67
2023/02/16 01:14:32;;;;;;;76.35;46.38;;;;;;;6.40;100.00;102295.75;10389622;28;20434;-67
2023/02/16 01:19:32;;;;;;;68.55;47.45;;;;;;;6.46;100.00;102292.50;10399571;28;20112;-67
2023/02/16 01:24:32;;;;;;;69.20;43.85;;;;;;;6.48;100.00;102292.38;10433616;28;20048;-67
2023/02/16 01:29:33;;;;;;;67.53;43.92;;;;;;;6.47;100.00;102288.81;10418071;28;20418;-67
2023/02/16 01:34:33;;;;;;;64.07;45.08;;;;;;;6.56;100.00;102287.16;10416599;28;20086;-67
2023/02/16 01:39:34;;;;;;;64.95;42.55;;;;;;;6.59;100.00;102284.19;10401062;28;20037;-67
2023/02/16 01:44:39;;;;;;;70.75;44.35;;;;;;;6.75;100.00;102273.75;10399886;28;20115;-67
2023/02/16 01:49:40;;;;;;;62.90;42.45;;;;;;;6.77;100.00;102264.69;10399297;28;20100;-67
2023/02/16 01:54:48;;;;;;;66.15;42.97;;;;;;;6.74;100.00;102277.44;10416548;28;20547;-67
2023/02/16 01:59:48;;;;;;;61.95;40.28;;;;;;;6.73;100.00;102274.88;10398550;28;20041;-67
2023/02/16 02:10:22;;;;;;;55.92;38.28;;;;;;;6.84;100.00;102265.84;10389553;28;20037;-67
2023/02/16 02:15:24;;;;;;;56.40;41.20;;;;;;;6.89;100.00;102268.94;10416069;28;20033;-67
2023/02/16 02:26:08;;;;;;;69.78;45.35;;;;;;;7.00;100.00;102255.38;10401708;28;20120;-67
2023/02/16 02:31:36;;;;;;;68.82;46.88;;;;;;;7.01;100.00;102243.59;10424955;28;20039;-67
2023/02/16 02:36:40;;;;;;;71.53;43.17;;;;;;;6.94;100.00;102234.38;10424990;28;20104;-67
2023/02/16 02:42:12;;;;;;;68.60;46.55;;;;;;;6.94;100.00;102229.00;10393190;28;20033;-67
2023/02/16 02:47:12;;;;;;;72.13;43.13;;;;;;;6.87;100.00;102225.16;10340304;28;20400;-67
2023/02/16 02:52:13;;;;;;;67.05;45.83;;;;;;;6.87;100.00;102230.56;10438325;28;20128;-67
2023/02/16 03:02:32;;;;;;;67.20;39.97;;;;;;;6.97;100.00;102224.16;10422656;28;20037;-67
2023/02/16 03:07:45;;;;;;;57.25;40.47;;;;;;;7.01;100.00;102208.56;10406037;28;20033;-67
2023/02/16 03:12:45;;;;;;;59.80;41.00;;;;;;;7.05;100.00;102218.09;10409961;28;20037;-67
2023/02/16 03:33:44;;;;;;;56.10;38.83;;;;;;;7.08;100.00;102222.31;10393651;28;20029;-67
2023/02/16 03:38:45;;;;;;;59.20;34.88;;;;;;;7.14;100.00;102219.06;10422282;28;20033;-67
2023/02/16 03:43:45;;;;;;;63.22;39.80;;;;;;;7.17;100.00;102198.06;10389245;28;20037;-68
2023/02/16 03:48:45;;;;;;;62.20;38.05;;;;;;;7.21;100.00;102198.63;10421132;28;20060;-67
2023/02/16 03:53:46;;;;;;;60.95;40.40;;;;;;;7.13;100.00;102198.50;10436010;28;20029;-67
2023/02/16 03:58:46;;;;;;;53.05;34.72;;;;;;;7.22;100.00;102211.97;10421067;28;20049;-67
2023/02/16 04:03:47;;;;;;;56.80;35.20;;;;;;;7.24;100.00;102214.50;10421432;28;20104;-67
2023/02/16 04:08:47;;;;;;;53.80;34.63;;;;;;;7.25;100.00;102215.38;10420075;28;20038;-67
2023/02/16 04:13:47;;;;;;;52.75;37.35;;;;;;;7.25;100.00;102201.91;10405236;28;20030;-67
2023/02/16 04:18:48;;;;;;;55.08;38.25;;;;;;;7.18;100.00;102215.13;10387249;28;20061;-67
2023/02/16 04:23:48;;;;;;;55.63;37.78;;;;;;;7.24;100.00;102214.50;10421234;28;20033;-67
2023/02/16 04:28:49;;;;;;;59.63;37.35;;;;;;;7.26;100.00;102206.31;10436496;28;20117;-67
2023/02/16 04:33:49;;;;;;;62.13;39.47;;;;;;;7.22;100.00;102209.28;10419653;28;20124;-68
2023/02/16 04:38:49;;;;;;;53.88;36.85;;;;;;;7.21;100.00;102202.19;10403473;28;20033;-67
2023/02/16 04:43:50;;;;;;;44.58;32.88;;;;;;;7.25;100.00;102199.22;10388500;28;20037;-67
2023/02/16 04:48:50;;;;;;;54.28;34.88;;;;;;;7.18;100.00;102197.09;10401640;28;20136;-67
2023/02/16 04:53:51;;;;;;;62.83;37.58;;;;;;;7.21;100.00;102186.03;10417980;28;20037;-67
2023/02/16 04:58:51;;;;;;;45.78;35.08;;;;;;;7.30;100.00;102192.38;10418589;28;20057;-67
2023/02/16 05:03:52;;;;;;;59.70;36.88;;;;;;;7.23;100.00;102200.19;10418999;28;20033;-67
2023/02/16 05:08:52;;;;;;;48.28;30.73;;;;;;;7.22;100.00;102193.13;10383769;28;20121;-67
2023/02/16 05:19:24;;;;;;;49.92;35.25;;;;;;;7.38;100.00;102180.91;10388177;28;20159;-67
2023/02/16 05:24:24;;;;;;;59.08;37.03;;;;;;;7.45;100.00;102184.69;10417014;28;20030;-67
2023/02/16 05:29:25;;;;;;;54.45;37.65;;;;;;;7.55;100.00;102185.53;10382777;28;20033;-66
2023/02/16 05:34:25;;;;;;;62.63;37.80;;;;;;;7.62;100.00;102186.63;10399607;28;20072;-66
2023/02/16 05:39:26;;;;;;;62.92;37.83;;;;;;;7.61;100.00;102176.00;10416552;28;20041;-66
2023/02/16 05:44:26;;;;;;;58.53;33.05;;;;;;;7.57;100.00;102155.75;10419436;28;20088;-67
2023/02/16 05:49:27;;;;;;;53.03;37.97;;;;;;;7.53;100.00;102179.44;10416492;28;20053;-67
2023/02/16 05:54:27;;;;;;;38.92;28.88;;;;;;;7.50;100.00;102178.88;10417167;28;20385;-67
2023/02/16 05:59:28;;;;;;;55.47;36.40;;;;;;;7.48;100.00;102176.31;10432448;28;20065;-67
2023/02/16 06:04:28;;;;;;;51.17;36.45;;;;;;;7.49;100.00;102175.31;10398062;28;20037;-67
2023/02/16 06:09:30;;;;;;;49.33;34.63;;;;;;;7.51;100.00;102189.50;10416082;28;20428;-67
2023/02/16 06:14:30;;;;;;;59.13;37.15;;;;;;;7.56;100.00;102176.47;10400108;28;20472;-67
2023/02/16 06:19:31;;;;;;;48.10;33.10;;;;;;;7.55;100.00;102184.69;10360753;28;20050;-66
2023/02/16 06:24:31;;;;;;;56.45;38.47;;;;;;;7.54;100.00;102186.53;10432454;28;20040;-67
2023/02/16 06:29:32;;;;;;;62.20;37.50;;;;;;;7.51;100.00;102188.66;10455648;28;20044;-67
2023/02/16 06:34:32;;;;;;;59.97;36.83;;;;;;;7.55;100.00;102190.91;10472324;28;20458;-67
2023/02/16 06:39:32;;;;;;;54.10;37.88;;;;;;;7.59;100.00;102191.47;10456120;28;20084;-67
2023/02/16 06:44:33;;;;;;;71.88;42.10;;;;;;;7.59;100.00;102204.94;10458968;28;20060;-68
2023/02/16 06:49:33;;;;;;;58.03;37.33;;;;;;;7.50;100.00;102209.38;10456273;28;20060;-67
2023/02/16 06:54:33;;;;;;;54.05;34.45;;;;;;;7.51;100.00;102212.94;10456402;28;20037;-67
2023/02/16 06:59:34;;;;;;;47.70;33.42;;;;;;;7.48;100.00;102216.75;10456868;28;20063;-67
2023/02/16 07:04:34;;;;;;;61.92;37.90;;;;;;;7.50;100.00;102217.47;10456556;28;20037;-67
2023/02/16 07:09:36;;;;;;;60.83;37.80;;;;;;;7.50;100.00;102224.69;10456769;28;20041;-67
2023/02/16 07:14:36;;;;;;;50.35;34.40;;;;;;;7.41;100.00;102207.56;10459956;28;20040;-67
2023/02/16 07:19:36;;;;;;;58.08;38.70;;;;;;;7.42;100.00;102214.63;10463109;28;20496;-67
2023/02/16 07:24:37;;;;;;;55.17;38.30;;;;;;;7.47;100.00;102220.47;10464723;28;20033;-67
2023/02/16 07:29:38;;;;;;;52.65;38.20;;;;;;;7.52;100.00;102228.09;10412144;28;20491;-67
2023/02/16 07:34:38;;;;;;;50.20;35.08;;;;;;;7.51;100.00;102229.94;10445523;28;20116;-67
2023/02/16 07:39:39;;;;;;;59.05;40.35;;;;;;;7.58;100.00;102235.59;10445208;28;20033;-67
2023/02/16 07:44:39;;;;;;;70.80;38.45;;;;;;;7.60;100.00;102242.56;10446779;28;20041;-68
2023/02/16 07:49:40;;;;;;;59.22;37.22;;;;;;;7.57;100.00;102250.94;10462694;28;20103;-67
2023/02/16 07:54:40;;;;;;;60.95;39.80;;;;;;;7.55;100.00;102258.31;10429257;28;20037;-66
2023/02/16 07:59:41;;;;;;;53.97;38.28;;;;;;;7.40;100.00;102266.00;10444444;28;20048;-66
2023/02/16 08:04:42;;;;;;;61.78;43.47;;;;;;;7.31;100.00;102258.78;10462105;28;20044;-66
2023/02/16 08:09:43;;;;;;;48.67;37.78;;;;;;;7.21;100.00;102266.84;10427671;28;20613;-66
2023/02/16 08:14:45;;;;;;;63.13;40.72;;;;;;;7.14;100.00;102281.03;10444256;28;20125;-65
2023/02/16 08:19:45;;;;;;;69.60;41.88;;;;;;;7.05;100.00;102268.41;10444225;28;20064;-65
2023/02/16 08:24:46;;;;;;;69.60;41.53;;;;;;;7.00;100.00;102271.53;10461271;28;20072;-65
2023/02/16 08:29:46;;;;;;;65.55;43.40;;;;;;;6.90;100.00;102276.06;10443936;28;20047;-65
2023/02/16 08:34:46;;;;;;;61.65;43.88;;;;;;;6.95;100.00;102281.84;10461848;28;20036;-65
2023/02/16 08:39:47;;;;;;;70.07;43.83;;;;;;;7.08;100.00;102273.50;10461159;28;20591;-66
2023/02/16 08:44:48;;;;;;;63.72;43.17;;;;;;;7.27;100.00;102268.09;10461550;28;20491;-65
2023/02/16 08:49:48;;;;;;;68.63;44.70;;;;;;;7.43;100.00;102268.41;10441985;28;20452;-66
2023/02/16 08:54:49;;;;;;;61.30;43.15;;;;;;;7.59;100.00;102270.50;10442916;28;20032;-66
2023/02/16 09:00:32;;;;;;;69.20;47.83;;;;;;;7.67;100.00;102272.47;10442571;28;20044;-65
2023/02/16 09:05:10;;;;;;;65.93;46.40;;;;;;;7.71;100.00;102265.78;10444088;28;20393;-65
2023/02/16 09:10:10;;;;;;;69.72;40.50;;;;;;;7.67;100.00;102277.88;10441256;28;20064;-65
2023/02/16 09:15:11;;;;;;;67.22;47.15;;;;;;;7.73;100.00;102268.38;10409810;28;20110;-65
2023/02/16 09:20:11;;;;;;;64.40;43.55;;;;;;;7.73;100.00;102257.56;10459668;28;20416;-66
2023/02/16 09:25:12;;;;;;;58.65;41.78;;;;;;;7.75;100.00;102261.81;10458825;28;20032;-65
2023/02/16 09:30:13;;;;;;;58.63;44.47;;;;;;;7.91;100.00;102263.88;10458745;28;20033;-65
2023/02/16 09:35:14;;;;;;;68.68;45.30;;;;;;;8.48;100.00;102270.09;10457877;28;20093;-66
2023/02/16 09:40:15;;;;;;;48.33;38.13;;;;;;;8.76;100.00;102241.22;10457532;28;20040;-66
2023/02/16 09:45:16;;;;;;;64.80;43.33;;;;;;;9.38;100.00;102237.72;10425707;28;20033;-66
2023/02/16 09:50:24;;;;;;;63.50;44.35;;;;;;;9.17;100.00;102240.75;10425119;28;20084;-66
2023/02/16 09:55:34;;;;;;;54.72;40.83;;;;;;;9.00;100.00;102243.31;10441083;28;20033;-66
2023/02/16 10:00:39;;;;;;;61.63;40.63;;;;;;;9.08;100.00;102247.94;10409512;28;20089;-66
2023/02/16 10:06:09;;;;;;;70.28;44.53;;;;;;;9.21;100.00;102234.03;10439638;28;20033;-66
2023/02/16 10:17:27;;;;;;;54.45;40.38;;;;;;;9.24;100.00;102228.31;10457200;28;20120;-66
2023/02/16 10:22:34;;;;;;;62.17;43.67;;;;;;;9.28;100.00;102224.28;10439235;28;20033;-66
2023/02/16 10:27:39;;;;;;;72.78;42.20;;;;;;;9.45;100.00;102223.44;10440050;28;20040;-66
2023/02/16 10:32:53;;;;;;;61.58;42.33;;;;;;;9.51;100.00;102232.78;10423860;28;20033;-66
2023/02/16 10:38:00;;;;;;;60.03;42.97;;;;;;;9.55;100.00;102229.56;10456764;28;20127;-66
2023/02/16 10:43:15;;;;;;;47.00;37.83;;;;;;;9.62;100.00;102235.19;10439356;28;20043;-66
2023/02/16 10:48:16;;;;;;;57.55;42.95;;;;;;;9.63;100.00;102238.75;10459883;28;20450;-66
2023/02/16 10:53:20;;;;;;;72.07;41.00;;;;;;;10.39;100.00;102238.84;10446767;28;20053;-66
2023/02/16 10:58:41;;;;;;;67.32;43.05;;;;;;;10.41;100.00;102236.84;10466361;28;20112;-66
2023/02/16 11:03:45;;;;;;;66.43;43.78;;;;;;;10.23;100.00;102217.09;10446660;28;20124;-67
2023/02/16 11:08:55;;;;;;;69.57;41.55;;;;;;;10.61;100.00;102214.88;10447305;28;20067;-66
2023/02/16 11:14:01;;;;;;;64.47;39.95;;;;;;;10.79;100.00;102210.19;10447732;28;20449;-66
2023/02/16 11:19:06;;;;;;;51.85;35.30;;;;;;;11.13;100.00;102217.31;10429886;28;20372;-66
2023/02/16 11:24:09;;;;;;;40.85;28.92;;;;;;;11.30;100.00;102215.47;10430071;28;20448;-67
2023/02/16 11:29:19;;;;;;;48.70;32.15;;;;;;;11.31;100.00;102217.16;10431044;28;20029;-67
2023/02/16 11:34:38;;;;;;;62.50;32.30;;;;;;;11.70;100.00;102202.88;10446749;28;20136;-67
2023/02/16 11:39:39;;;;;;;39.85;26.15;;;;;;;12.00;100.00;102196.72;10444678;28;20021;-67
2023/02/16 11:44:43;;;;;;;51.17;30.45;;;;;;;12.60;100.00;102202.53;10445544;28;20427;-67
2023/02/16 11:49:43;;;;;;;45.50;29.40;;;;;;;13.19;100.00;102190.03;10446445;28;20128;-67
2023/02/16 11:54:54;;;;;;;39.13;26.30;;;;;;;13.30;100.00;102191.50;10462446;28;20032;-67
2023/02/16 11:59:55;;;;;;;43.42;27.48;;;;;;;13.37;100.00;102167.97;10461322;28;20116;-67
2023/02/16 12:04:59;;;;;;;34.22;24.42;;;;;;;13.81;100.00;102161.72;10427336;28;20116;-67
2023/02/16 12:10:07;;;;;;;40.00;25.83;;;;;;;13.83;100.00;102153.38;10461952;28;20468;-67
2023/02/16 12:15:07;;;;;;;33.58;27.10;;;;;;;13.49;100.00;102150.16;10444667;28;20032;-67
2023/02/16 12:20:40;;;;;;;31.13;23.48;;;;;;;12.99;100.00;102142.63;10461066;28;20092;-67
2023/02/16 12:25:51;;;;;;;30.90;21.40;;;;;;;12.64;100.00;102130.50;10444294;28;20453;-67
2023/02/16 12:31:10;;;;;;;25.27;20.52;;;;;;;12.74;100.00;102131.94;10460563;28;20025;-67
2023/02/16 12:36:46;;;;;;;24.60;18.65;;;;;;;12.52;100.00;102133.63;10460767;28;20048;-67
2023/02/16 12:42:11;;;;;;;34.80;19.85;;;;;;;12.60;100.00;102135.44;10461345;28;20036;-67
2023/02/16 12:47:16;;;;;;;28.77;18.80;;;;;;;12.02;100.00;102121.34;10446986;28;20041;-67
2023/02/16 12:52:27;;;;;;;32.97;20.10;;;;;;;11.66;100.00;102120.97;10442895;28;20048;-68
2023/02/16 12:57:27;;;;;;;31.02;22.20;;;;;;;11.65;100.00;102108.44;10442295;28;20036;-67
2023/02/16 13:03:08;;;;;;;31.45;21.00;;;;;;;11.72;100.00;102095.84;10425456;28;20033;-67
2023/02/16 13:08:38;;;;;;;27.92;21.33;;;;;;;11.79;100.00;102069.69;10321961;28;20034;-67
2023/02/16 13:13:38;;;;;;;28.70;22.58;;;;;;;11.78;100.00;102073.44;10441036;28;20037;-67
2023/02/16 13:18:39;;;;;;;26.30;19.65;;;;;;;11.61;100.00;102069.97;10424925;28;20476;-67
2023/02/16 13:23:51;;;;;;;35.95;21.38;;;;;;;11.63;100.00;102057.03;10424026;28;20036;-67
2023/02/16 13:29:04;;;;;;;33.08;21.48;;;;;;;11.68;100.00;102059.25;10426235;28;20126;-67
2023/02/16 13:34:07;;;;;;;35.97;20.38;;;;;;;11.65;100.00;102054.16;10458007;28;20483;-67
2023/02/16 13:39:19;;;;;;;31.02;21.23;;;;;;;11.47;100.00;102038.13;10458458;28;20170;-67
2023/02/16 13:44:22;;;;;;;36.35;21.40;;;;;;;11.52;100.00;102029.44;10442041;28;20174;-67
2023/02/16 13:49:34;;;;;;;30.23;21.55;;;;;;;11.61;100.00;102033.81;10442035;28;20029;-67
2023/02/16 13:54:40;;;;;;;28.95;20.65;;;;;;;11.78;100.00;102027.31;10424122;28;20135;-67
2023/02/16 13:59:48;;;;;;;37.00;22.50;;;;;;;11.63;100.00;102020.94;10457152;28;20485;-67
2023/02/16 14:04:50;;;;;;;33.80;21.45;;;;;;;11.56;100.00;102014.53;10423464;28;20107;-68
2023/02/16 14:09:50;;;;;;;27.90;19.00;;;;;;;11.58;100.00;102016.06;10457035;28;20040;-68
2023/02/16 14:14:50;;;;;;;25.58;16.08;;;;;;;11.51;100.00;101992.50;10423593;28;20358;-67
2023/02/16 14:19:53;;;;;;;34.17;21.20;;;;;;;11.20;100.00;101995.16;10458458;28;20123;-67
2023/02/16 14:24:55;;;;;;;30.88;21.52;;;;;;;10.98;100.00;101997.63;10439651;28;20077;-67
2023/02/16 14:29:58;;;;;;;29.33;18.90;;;;;;;10.68;100.00;101999.19;10422876;28;20104;-67
2023/02/16 14:35:07;;;;;;;27.90;17.73;;;;;;;10.37;100.00;102009.88;10439841;28;20025;-67
2023/02/16 14:40:14;;;;;;;24.33;16.83;;;;;;;10.24;100.00;102007.63;10422853;28;20044;-67
2023/02/16 14:45:26;;;;;;;28.40;20.95;;;;;;;10.10;100.00;101997.47;10457270;28;20032;-67
2023/02/16 14:51:04;;;;;;;19.52;16.30;;;;;;;9.95;100.00;102008.09;10456347;28;20075;-67
2023/02/16 14:56:10;;;;;;;23.63;16.42;;;;;;;9.92;100.00;102011.13;10455768;28;20171;-67
2023/02/16 15:01:15;;;;;;;29.70;22.98;;;;;;;9.99;100.00;102001.38;10422539;28;20506;-67
2023/02/16 15:06:37;;;;;;;27.45;21.35;;;;;;;9.95;100.00;102000.81;10423811;28;20033;-67
2023/02/16 15:17:04;;;;;;;28.73;15.75;;;;;;;9.67;100.00;101999.44;10440941;28;20067;-67
2023/02/16 15:22:16;;;;;;;31.70;21.98;;;;;;;9.51;100.00;101998.38;10438029;28;20044;-67
2023/02/16 15:27:20;;;;;;;26.67;19.90;;;;;;;9.53;100.00;101996.31;10456928;28;20164;-67
2023/02/16 15:32:21;;;;;;;35.40;21.73;;;;;;;9.57;100.00;102004.94;10437894;28;20048;-67
2023/02/16 15:37:27;;;;;;;30.23;22.38;;;;;;;9.55;100.00;102013.25;10442293;28;20044;-67
2023/02/16 15:42:27;;;;;;;31.63;22.03;;;;;;;9.50;100.00;102012.88;10445364;28;20025;-67
2023/02/16 15:47:28;;;;;;;35.28;24.73;;;;;;;9.48;100.00;102011.38;10413663;28;20308;-67
2023/02/16 15:52:33;;;;;;;28.55;21.38;;;;;;;9.44;100.00;102000.00;10445062;28;20056;-67
2023/02/16 15:57:37;;;;;;;33.42;22.30;;;;;;;9.49;100.00;102002.22;10444040;28;20560;-67
2023/02/16 16:02:39;;;;;;;32.30;20.90;;;;;;;9.43;100.00;102001.03;10412464;28;20129;-66
2023/02/16 16:07:39;;;;;;;28.08;19.55;;;;;;;9.26;100.00;101997.41;10427924;28;20040;-65
2023/02/16 16:12:40;;;;;;;30.02;19.70;;;;;;;9.30;100.00;101992.53;10444106;28;20366;-66
2023/02/16 16:17:40;;;;;;;21.08;18.05;;;;;;;9.25;100.00;101975.94;10444404;28;20037;-66
2023/02/16 16:22:42;;;;;;;26.85;17.83;;;;;;;9.31;100.00;101981.53;10444299;28;20036;-66
2023/02/16 16:27:46;;;;;;;22.55;16.25;;;;;;;9.24;100.00;101980.50;10443295;28;20493;-66
2023/02/16 16:32:46;;;;;;;31.02;19.73;;;;;;;9.15;100.00;101969.81;10462766;28;20037;-66
2023/02/16 16:37:49;;;;;;;31.27;21.27;;;;;;;9.18;100.00;101977.59;10428261;28;20131;-67
2023/02/16 16:43:03;;;;;;;27.77;20.67;;;;;;;9.21;100.00;101958.34;10410844;28;20044;-67
2023/02/16 16:48:27;;;;;;;21.15;17.88;;;;;;;9.23;100.00;101961.75;10461487;28;20048;-67
2023/02/16 16:53:28;;;;;;;18.95;16.45;;;;;;;9.18;100.00;101948.72;10442328;28;20491;-67
2023/02/16 16:58:28;;;;;;;18.35;13.38;;;;;;;9.20;100.00;101944.00;10442315;28;20036;-68
2023/02/16 17:03:28;;;;;;;19.95;15.77;;;;;;;9.24;100.00;101949.94;10460504;28;20039;-68
2023/02/16 17:08:29;;;;;;;21.42;16.70;;;;;;;9.23;100.00;101950.94;10461405;28;20037;-68
2023/02/16 17:13:29;;;;;;;17.35;13.85;;;;;;;9.22;100.00;101943.81;10442835;28;20033;-68
2023/02/16 17:18:30;;;;;;;19.30;15.40;;;;;;;9.22;100.00;101938.44;10441537;28;20033;-68
2023/02/16 17:23:30;;;;;;;17.23;13.45;;;;;;;9.16;100.00;101939.09;10441247;28;20451;-69
2023/02/16 17:28:35;;;;;;;17.88;15.35;;;;;;;9.21;100.00;101947.56;10458986;28;20128;-68
2023/02/16 17:33:35;;;;;;;12.80;11.45;;;;;;;9.26;100.00;101923.59;10458606;28;20029;-68
2023/02/16 17:38:36;;;;;;;16.00;13.35;;;;;;;9.14;100.00;101925.75;10458425;28;20079;-68
2023/02/16 17:43:36;;;;;;;18.15;13.25;;;;;;;9.21;100.00;101924.06;10407618;28;20492;-69
2023/02/16 17:48:37;;;;;;;12.50;11.13;;;;;;;9.20;100.00;101918.84;10441295;28;20052;-68
2023/02/16 17:53:37;;;;;;;18.77;11.55;;;;;;;9.22;100.00;101943.81;10456590;28;20128;-68
2023/02/16 17:58:38;;;;;;;10.73;9.55;;;;;;;9.28;100.00;101946.75;10457251;28;20033;-68
2023/02/16 18:03:38;;;;;;;13.68;10.45;;;;;;;9.30;100.00;101942.00;10439881;28;20083;-68
2023/02/16 18:08:38;;;;;;;13.60;9.65;;;;;;;9.28;100.00;101914.31;10440330;28;20044;-68
2023/02/16 18:13:39;;;;;;;10.10;9.07;;;;;;;9.32;100.00;101936.47;10473341;28;20103;-68
2023/02/16 18:18:39;;;;;;;10.95;9.77;;;;;;;9.33;100.00;101935.44;10457351;28;20065;-68
2023/02/16 18:23:40;;;;;;;11.07;9.93;;;;;;;9.35;100.00;101943.38;10423444;28;20037;-68
2023/02/16 18:28:41;;;;;;;10.48;9.05;;;;;;;9.35;100.00;101940.66;10473157;28;20107;-68
2023/02/16 18:33:41;;;;;;;10.75;9.75;;;;;;;9.39;100.00;101942.06;10456076;28;20079;-68
2023/02/16 18:38:42;;;;;;;9.52;8.60;;;;;;;9.39;100.00;101933.94;10455000;28;20120;-68
2023/02/16 18:43:42;;;;;;;10.18;8.48;;;;;;;9.38;100.00;101930.41;10456773;28;20068;-68
2023/02/16 18:48:43;;;;;;;9.60;8.68;;;;;;;9.39;100.00;101932.06;10456369;28;20044;-68
2023/02/16 18:53:43;;;;;;;8.38;7.63;;;;;;;9.42;100.00;101931.75;10438543;28;20060;-68
2023/02/16 18:58:43;;;;;;;11.18;7.75;;;;;;;9.39;100.00;101939.34;10438718;28;20040;-68
2023/02/16 19:03:44;;;;;;;10.48;8.52;;;;;;;9.44;100.00;101942.38;10456187;28;20079;-68
2023/02/16 19:08:45;;;;;;;14.02;7.38;;;;;;;9.43;100.00;101941.53;10439006;28;20450;-68
2023/02/16 19:13:46;;;;;;;12.65;8.05;;;;;;;9.47;100.00;101937.50;10446221;28;20037;-68
2023/02/16 19:18:46;;;;;;;17.60;9.38;;;;;;;9.52;100.00;101945.97;10480999;28;20037;-68
2023/02/16 19:23:47;;;;;;;13.52;7.78;;;;;;;9.48;100.00;101925.69;10463260;28;20033;-68
2023/02/16 19:28:47;;;;;;;11.48;8.85;;;;;;;9.48;100.00;101932.97;10445852;28;20427;-68
2023/02/16 19:33:48;;;;;;;11.10;9.13;;;;;;;9.45;100.00;101923.31;10478898;28;20366;-68
2023/02/16 19:38:49;;;;;;;13.65;10.77;;;;;;;9.46;100.00;101930.41;10445145;28;20623;-68
2023/02/16 19:43:50;;;;;;;12.00;10.57;;;;;;;9.46;100.00;101919.59;10461925;28;20075;-68
2023/02/16 19:48:50;;;;;;;14.32;9.60;;;;;;;9.46;100.00;101930.41;10429956;28;20552;-69
2023/02/16 19:53:50;;;;;;;11.85;10.40;;;;;;;9.47;100.00;101923.13;10463360;28;20532;-69
2023/02/16 19:58:51;;;;;;;18.83;12.68;;;;;;;9.47;100.00;101899.63;10444660;28;20435;-69
2023/02/16 20:03:52;;;;;;;19.20;13.65;;;;;;;9.45;100.00;101914.34;10427782;28;20131;-69
2023/02/16 20:08:53;;;;;;;17.25;11.80;;;;;;;9.46;100.00;101914.19;10411125;28;20052;-69
2023/02/16 20:13:54;;;;;;;15.82;13.63;;;;;;;9.49;100.00;101907.59;10443848;28;20032;-69
2023/02/16 20:18:54;;;;;;;18.15;11.25;;;;;;;9.50;100.00;101910.13;10445712;28;20029;-68
2023/02/16 20:23:56;;;;;;;16.88;12.98;;;;;;;9.51;100.00;101911.00;10428714;28;20039;-69
2023/02/16 20:29:00;;;;;;;18.45;12.52;;;;;;;9.51;100.00;101928.06;10460632;28;20390;-69
2023/02/16 20:34:00;;;;;;;15.50;10.82;;;;;;;9.51;100.00;101916.41;10426719;28;20036;-69
2023/02/16 20:39:01;;;;;;;12.65;10.32;;;;;;;9.50;100.00;101917.41;10427439;28;20041;-69
2023/02/16 20:44:01;;;;;;;16.55;11.05;;;;;;;9.48;100.00;101927.56;10460600;28;20389;-69
2023/02/16 20:49:03;;;;;;;21.60;12.98;;;;;;;9.53;100.00;101928.72;10443155;28;20465;-69
2023/02/16 20:54:03;;;;;;;14.38;12.32;;;;;;;9.54;100.00;101922.31;10442129;28;20477;-69
2023/02/16 20:59:04;;;;;;;18.40;11.65;;;;;;;9.52;100.00;101915.38;10425800;28;20048;-69
2023/02/16 21:04:05;;;;;;;15.88;13.57;;;;;;;9.53;100.00;101922.47;10459834;28;20496;-69
2023/02/16 21:09:06;;;;;;;17.30;12.50;;;;;;;9.51;100.00;101928.06;10425277;28;20090;-69
2023/02/16 21:14:07;;;;;;;14.30;12.02;;;;;;;9.48;100.00;101922.97;10442692;28;20069;-69
2023/02/16 21:19:08;;;;;;;15.48;11.23;;;;;;;9.46;100.00;101926.84;10441913;28;20033;-69
2023/02/16 21:24:09;;;;;;;11.75;8.90;;;;;;;9.43;100.00;101917.22;10441947;28;20032;-69
2023/02/16 21:29:09;;;;;;;27.42;8.98;;;;;;;9.42;100.00;101925.50;10458296;28;20449;-68
2023/02/16 21:34:09;;;;;;;9.75;7.15;;;;;;;9.38;100.00;101910.59;10458574;28;20055;-68
2023/02/16 21:39:10;;;;;;;29.92;12.32;;;;;;;9.35;100.00;101917.22;10440777;28;20136;-68
2023/02/16 21:44:12;;;;;;;14.15;10.07;;;;;;;9.35;100.00;101925.31;10457805;28;20086;-69
2023/02/16 21:49:17;;;;;;;12.00;9.90;;;;;;;9.37;100.00;101915.16;10458768;28;20539;-68
2023/02/16 21:56:15;;;;;;;17.05;10.57;;;;;;;9.36;100.00;101910.78;10458085;28;20053;-68
2023/02/16 21:59:38;;;;;;;20.88;11.48;;;;;;;9.31;100.00;101903.16;10428547;28;20095;-69
2023/02/16 22:04:40;;;;;;;19.73;12.05;;;;;;;9.27;100.00;101899.09;10423996;28;20033;-69
2023/02/16 22:09:40;;;;;;;20.38;9.70;;;;;;;9.32;100.00;101890.50;10424241;28;20029;-68
2023/02/16 22:14:40;;;;;;;16.25;12.00;;;;;;;9.27;100.00;101882.03;10440085;28;20364;-68
2023/02/16 22:19:41;;;;;;;15.73;10.35;;;;;;;9.25;100.00;101878.63;10424623;28;20453;-68
2023/02/16 22:24:41;;;;;;;18.30;12.20;;;;;;;9.31;100.00;101899.59;10424097;28;20056;-68
2023/02/16 22:29:42;;;;;;;20.48;11.63;;;;;;;9.29;100.00;101897.09;10439416;28;20118;-68
2023/02/16 22:34:43;;;;;;;19.33;10.98;;;;;;;9.27;100.00;101900.94;10438589;28;20092;-68
2023/02/16 22:39:43;;;;;;;32.22;11.73;;;;;;;9.24;100.00;101901.28;10439063;28;20037;-68
2023/02/16 22:44:44;;;;;;;17.25;13.73;;;;;;;9.25;100.00;101903.84;10425971;28;20131;-68
2023/02/16 22:49:44;;;;;;;20.05;13.45;;;;;;;9.23;100.00;101908.53;10416122;28;20025;-68
2023/02/16 22:54:50;;;;;;;22.67;15.07;;;;;;;9.20;100.00;101903.47;10449178;28;20076;-68
2023/02/16 22:59:50;;;;;;;18.40;13.48;;;;;;;9.18;100.00;101905.47;10465339;28;20480;-68
2023/02/16 23:04:55;;;;;;;18.48;11.80;;;;;;;9.16;100.00;101902.13;10465295;28;20115;-68
2023/02/16 23:09:55;;;;;;;20.75;12.25;;;;;;;9.17;100.00;101903.78;10447409;28;20036;-68
2023/02/16 23:14:56;;;;;;;35.28;16.35;;;;;;;9.18;100.00;101899.22;10446332;28;20419;-68
2023/02/16 23:19:56;;;;;;;25.40;12.82;;;;;;;9.18;100.00;101901.94;10464572;28;20071;-68
2023/02/16 23:30:15;;;;;;;31.42;13.60;;;;;;;9.09;100.00;101898.34;10463786;28;20033;-68
2023/02/16 23:35:16;;;;;;;25.73;12.63;;;;;;;9.10;100.00;101921.69;10445691;28;20481;-68
2023/02/16 23:40:17;;;;;;;29.65;12.98;;;;;;;8.98;100.00;101917.56;10463295;28;20124;-68
2023/02/16 23:45:17;;;;;;;17.33;12.60;;;;;;;8.91;100.00;101908.44;10428185;28;20051;-68